createdAt,value
2022-09-17T00:01:59.765Z,24.20
2022-09-17T00:04:30.209Z,24.23
2022-09-17T00:07:00.344Z,24.23
2022-09-17T00:09:31.525Z,24.23
2022-09-17T00:12:03.205Z,24.20
2022-09-17T00:14:33.016Z,24.16
2022-09-17T00:17:02.812Z,24.15
2022-09-17T00:19:32.561Z,24.08
2022-09-17T00:22:02.856Z,24.00
2022-09-17T00:24:32.860Z,24.05
2022-09-17T00:27:04.289Z,24.06
2022-09-17T00:29:34.534Z,23.99
2022-09-17T00:32:04.405Z,24.05
2022-09-17T00:34:34.502Z,23.84
2022-09-17T00:37:04.572Z,23.73
2022-09-17T00:39:34.443Z,23.76
2022-09-17T00:42:10.680Z,23.77
2022-09-17T00:44:48.249Z,23.81
2022-09-17T00:47:24.660Z,23.87
2022-09-17T00:49:59.501Z,23.89
2022-09-17T00:52:35.483Z,23.82
2022-09-17T00:55:13.043Z,23.60
2022-09-17T00:57:45.978Z,23.76
2022-09-17T01:00:17.844Z,23.84
2022-09-17T01:02:48.360Z,23.92
2022-09-17T01:05:18.855Z,23.93
2022-09-17T01:08:02.486Z,23.89
2022-09-17T01:10:44.395Z,23.76
2022-09-17T01:13:27.652Z,23.81
2022-09-17T01:16:04.461Z,23.81
2022-09-17T01:18:49.559Z,23.75
2022-09-17T01:21:57.924Z,23.72
2022-09-17T01:25:00.383Z,23.72
2022-09-17T01:27:58.830Z,23.67
2022-09-17T01:31:13.754Z,23.64
2022-09-17T01:33:48.839Z,23.66
2022-09-17T01:36:26.497Z,23.56
2022-09-17T01:39:07.495Z,23.55
2022-09-17T01:41:44.838Z,23.63
2022-09-17T01:44:23.107Z,23.54
2022-09-17T01:46:57.740Z,23.51
2022-09-17T01:49:31.767Z,23.47
2022-09-17T01:52:03.099Z,23.44
2022-09-17T01:54:39.201Z,23.47
2022-09-17T01:57:17.114Z,23.44
2022-09-17T01:59:51.569Z,23.31
2022-09-17T02:02:28.010Z,23.26
2022-09-17T02:05:04.518Z,23.14
2022-09-17T02:07:42.015Z,23.00
2022-09-17T02:10:18.696Z,22.95
2022-09-17T02:12:57.336Z,22.98
2022-09-17T02:15:32.382Z,22.93
2022-09-17T02:18:07.977Z,22.54
2022-09-17T02:20:44.820Z,22.71
2022-09-17T02:23:19.988Z,22.59
2022-09-17T02:25:54.584Z,22.74
2022-09-17T02:28:34.098Z,22.73
2022-09-17T02:31:04.040Z,22.62
2022-09-17T02:33:35.878Z,22.60
2022-09-17T02:36:07.782Z,22.64
2022-09-17T02:38:42.459Z,22.58
2022-09-17T02:41:18.399Z,22.55
2022-09-17T02:44:00.301Z,22.30
2022-09-17T02:46:53.962Z,22.28
2022-09-17T02:49:30.998Z,22.24
2022-09-17T02:52:13.444Z,22.02
2022-09-17T02:54:50.784Z,21.80
2022-09-17T02:57:25.548Z,21.95
2022-09-17T03:00:04.344Z,21.93
2022-09-17T03:02:42.295Z,21.99
2022-09-17T03:05:13.212Z,21.90
2022-09-17T03:07:44.371Z,21.88
2022-09-17T03:10:14.179Z,21.64
2022-09-17T03:12:44.455Z,21.68
2022-09-17T03:15:14.437Z,21.67
2022-09-17T03:17:44.332Z,21.67
2022-09-17T03:20:16.146Z,21.72
2022-09-17T03:22:47.314Z,21.64
2022-09-17T03:25:17.422Z,21.59
2022-09-17T03:27:48.332Z,21.48
2022-09-17T03:30:19.792Z,21.45
2022-09-17T03:32:49.596Z,21.37
2022-09-17T03:35:19.436Z,21.53
2022-09-17T03:37:50.580Z,21.62
2022-09-17T03:40:21.849Z,21.61
2022-09-17T03:42:51.663Z,21.47
2022-09-17T03:45:39.576Z,21.38
2022-09-17T03:48:09.253Z,21.43
2022-09-17T03:50:39.027Z,21.61
2022-09-17T03:53:11.271Z,21.65
2022-09-17T03:55:41.447Z,21.68
2022-09-17T03:58:12.257Z,21.69
2022-09-17T04:00:43.557Z,21.72
2022-09-17T04:03:13.311Z,21.63
2022-09-17T04:05:43.140Z,21.62
2022-09-17T04:08:14.207Z,21.66
2022-09-17T04:10:44.771Z,21.43
2022-09-17T04:13:15.891Z,21.16
2022-09-17T04:15:46.338Z,21.28
2022-09-17T04:18:16.348Z,21.20
2022-09-17T04:20:46.308Z,21.10
2022-09-17T04:23:17.513Z,21.34
2022-09-17T04:25:47.504Z,21.51
2022-09-17T04:28:17.916Z,21.62
2022-09-17T04:30:49.196Z,21.62
2022-09-17T04:33:19.078Z,21.62
2022-09-17T04:35:49.386Z,21.62
2022-09-17T04:38:22.216Z,21.36
2022-09-17T04:40:52.078Z,21.46
2022-09-17T04:43:21.999Z,21.34
2022-09-17T04:45:52.037Z,21.24
2022-09-17T04:48:21.926Z,21.36
2022-09-17T04:50:51.788Z,21.34
2022-09-17T04:53:23.229Z,21.42
2022-09-17T04:55:53.419Z,21.40
2022-09-17T04:58:23.392Z,21.50
2022-09-17T05:00:53.353Z,21.65
2022-09-17T05:03:23.185Z,21.76
2022-09-17T05:05:53.007Z,21.79
2022-09-17T05:08:25.360Z,21.73
2022-09-17T05:10:55.147Z,21.78
2022-09-17T05:13:24.949Z,21.97
2022-09-17T05:15:56.593Z,22.22
2022-09-17T05:18:26.684Z,22.29
2022-09-17T05:20:56.377Z,22.42
2022-09-17T05:23:27.692Z,22.51
2022-09-17T05:25:59.449Z,22.47
2022-09-17T05:28:29.929Z,22.57
2022-09-17T05:31:01.969Z,22.65
2022-09-17T05:33:32.027Z,22.74
2022-09-17T05:36:02.162Z,22.86
2022-09-17T05:38:33.455Z,22.91
2022-09-17T05:41:06.415Z,22.94
2022-09-17T05:43:36.744Z,22.95
2022-09-17T05:46:07.141Z,23.04
2022-09-17T05:48:37.050Z,23.10
2022-09-17T05:51:07.062Z,23.01
2022-09-17T05:53:38.282Z,23.12
2022-09-17T05:56:09.760Z,23.10
2022-09-17T05:58:39.507Z,22.95
2022-09-17T06:01:16.013Z,23.02
2022-09-17T06:03:46.053Z,23.21
2022-09-17T06:06:15.913Z,23.33
2022-09-17T06:08:47.113Z,23.26
2022-09-17T06:11:16.802Z,23.42
2022-09-17T06:13:46.540Z,23.53
2022-09-17T06:16:16.660Z,23.54
2022-09-17T06:18:46.573Z,23.55
2022-09-17T06:21:17.328Z,23.49
2022-09-17T06:23:48.996Z,23.51
2022-09-17T06:26:19.383Z,23.71
2022-09-17T06:28:49.253Z,23.82
2022-09-17T06:31:19.134Z,23.66
2022-09-17T06:33:49.374Z,23.82
2022-09-17T06:36:19.391Z,23.77
2022-09-17T06:38:50.824Z,23.73
2022-09-17T06:41:20.626Z,23.87
2022-09-17T06:43:54.141Z,23.98
2022-09-17T06:46:24.118Z,24.06
2022-09-17T06:48:54.284Z,24.17
2022-09-17T06:51:24.509Z,24.24
2022-09-17T06:53:55.961Z,24.31
2022-09-17T06:56:25.952Z,24.43
2022-09-17T06:58:55.799Z,24.54
2022-09-17T07:01:25.665Z,24.63
2022-09-17T07:03:55.490Z,24.68
2022-09-17T07:06:25.692Z,24.83
2022-09-17T07:08:57.036Z,24.92
2022-09-17T07:11:27.198Z,25.07
2022-09-17T07:13:57.851Z,25.00
2022-09-17T07:16:28.186Z,25.00
2022-09-17T07:18:58.313Z,25.07
2022-09-17T07:21:28.387Z,24.98
2022-09-17T07:23:59.963Z,24.94
